RYR24U EGSS-EGCC
Flight info
| Callsign | RYR24U |
|---|---|
| Flight time | N/A |
| Altitude | 18000 |
| Route | UTAVA Q75 BUZAD T420 ELVOS |
| Aircraft | B738/M-SDE2E3FGHIRWXY/LB1 |
Departure
| Time | 2026-05-07 10:57 |
|---|---|
| Airport | London Stansted Airport (EGSS) |
Arrival
| Time | N/A |
|---|---|
| Airport | Manchester Airport (EGCC) |
| Time | Latitude | Longitude | Altitude | Speed | Heading |
|---|---|---|---|---|---|
| 2026-05-07 10:39 | 51.89596 | 0.26253 | 355 ft | 0 kts | 223° |
| 2026-05-07 10:46 | 51.89597 | 0.26254 | 355 ft | 1 kts | 223° |
| 2026-05-07 10:46 | 51.89608 | 0.26271 | 355 ft | 2 kts | 223° |
| 2026-05-07 10:46 | 51.89619 | 0.26288 | 355 ft | 2 kts | 223° |
| 2026-05-07 10:47 | 51.89627 | 0.26308 | 356 ft | 2 kts | 254° |
| 2026-05-07 10:47 | 51.89629 | 0.26332 | 356 ft | 2 kts | 278° |
| 2026-05-07 10:47 | 51.89624 | 0.26355 | 356 ft | 2 kts | 302° |
| 2026-05-07 10:47 | 51.89619 | 0.26365 | 356 ft | 1 kts | 316° |
| 2026-05-07 10:48 | 51.89616 | 0.26371 | 356 ft | 0 kts | 313° |
| 2026-05-07 10:49 | 51.89621 | 0.26362 | 356 ft | 3 kts | 313° |
| 2026-05-07 10:50 | 51.89651 | 0.26309 | 356 ft | 8 kts | 312° |
| 2026-05-07 10:50 | 51.89699 | 0.26224 | 356 ft | 11 kts | 312° |
| 2026-05-07 10:50 | 51.89771 | 0.26131 | 356 ft | 14 kts | 330° |
| 2026-05-07 10:50 | 51.89801 | 0.25986 | 356 ft | 17 kts | 234° |
| 2026-05-07 10:51 | 51.89700 | 0.25830 | 354 ft | 21 kts | 223° |
| 2026-05-07 10:51 | 51.89585 | 0.25658 | 352 ft | 23 kts | 222° |
| 2026-05-07 10:51 | 51.89456 | 0.25468 | 349 ft | 26 kts | 222° |
| 2026-05-07 10:51 | 51.89337 | 0.25289 | 347 ft | 14 kts | 223° |
| 2026-05-07 10:52 | 51.89258 | 0.25149 | 345 ft | 21 kts | 236° |
| 2026-05-07 10:52 | 51.89138 | 0.24915 | 343 ft | 30 kts | 223° |
| 2026-05-07 10:52 | 51.88985 | 0.24686 | 340 ft | 29 kts | 223° |
| 2026-05-07 10:52 | 51.88834 | 0.24461 | 339 ft | 29 kts | 222° |
| 2026-05-07 10:53 | 51.88686 | 0.24241 | 338 ft | 28 kts | 222° |
| 2026-05-07 10:53 | 51.88548 | 0.24031 | 339 ft | 26 kts | 223° |
| 2026-05-07 10:53 | 51.88416 | 0.23833 | 340 ft | 24 kts | 222° |
| 2026-05-07 10:53 | 51.88293 | 0.23649 | 342 ft | 23 kts | 223° |
| 2026-05-07 10:54 | 51.88179 | 0.23479 | 342 ft | 21 kts | 222° |
| 2026-05-07 10:54 | 51.88071 | 0.23319 | 343 ft | 20 kts | 222° |
| 2026-05-07 10:54 | 51.87971 | 0.23169 | 343 ft | 19 kts | 225° |
| 2026-05-07 10:54 | 51.87875 | 0.23022 | 342 ft | 18 kts | 220° |
| 2026-05-07 10:55 | 51.87781 | 0.22886 | 342 ft | 17 kts | 223° |
| 2026-05-07 10:55 | 51.87693 | 0.22751 | 340 ft | 17 kts | 222° |
| 2026-05-07 10:55 | 51.87604 | 0.22616 | 339 ft | 17 kts | 223° |
| 2026-05-07 10:55 | 51.87526 | 0.22488 | 338 ft | 11 kts | 245° |
| 2026-05-07 10:56 | 51.87555 | 0.22377 | 337 ft | 11 kts | 309° |
| 2026-05-07 10:56 | 51.87608 | 0.22280 | 336 ft | 11 kts | 325° |
| 2026-05-07 10:56 | 51.87679 | 0.22259 | 336 ft | 10 kts | 25° |
| 2026-05-07 10:56 | 51.87794 | 0.22424 | 338 ft | 45 kts | 44° |
| 2026-05-07 10:57 | 51.88205 | 0.23048 | 343 ft | 118 kts | 42° |
| 2026-05-07 10:57 | 51.88984 | 0.24199 | 434 ft | 177 kts | 43° |
| 2026-05-07 10:57 | 51.89845 | 0.25460 | 1567 ft | 163 kts | 44° |
| 2026-05-07 10:57 | 51.90617 | 0.26678 | 2329 ft | 163 kts | 46° |
| 2026-05-07 10:58 | 51.91499 | 0.28021 | 2680 ft | 184 kts | 43° |
| 2026-05-07 10:58 | 51.92534 | 0.29440 | 3039 ft | 207 kts | 36° |
| 2026-05-07 10:58 | 51.93966 | 0.30388 | 3299 ft | 239 kts | 6° |
| 2026-05-07 10:58 | 51.95642 | 0.29825 | 3707 ft | 261 kts | 331° |
| 2026-05-07 10:59 | 51.96974 | 0.27806 | 4397 ft | 269 kts | 301° |
| 2026-05-07 10:59 | 51.97622 | 0.24973 | 5232 ft | 270 kts | 276° |
| 2026-05-07 10:59 | 51.97659 | 0.21958 | 6130 ft | 269 kts | 265° |
| 2026-05-07 10:59 | 51.97612 | 0.18876 | 6839 ft | 277 kts | 271° |
| 2026-05-07 11:00 | 51.97804 | 0.15882 | 7856 ft | 271 kts | 277° |
| 2026-05-07 11:00 | 51.98137 | 0.12784 | 8328 ft | 287 kts | 280° |
| 2026-05-07 11:00 | 51.98519 | 0.09666 | 9280 ft | 282 kts | 281° |
| 2026-05-07 11:00 | 51.98888 | 0.06444 | 9769 ft | 297 kts | 278° |
| 2026-05-07 11:01 | 51.98958 | 0.03060 | 10191 ft | 312 kts | 266° |
| 2026-05-07 11:01 | 51.98945 | 0.02752 | 10230 ft | 313 kts | 265° |
| 2026-05-07 11:01 | 51.98676 | -0.00848 | 10675 ft | 328 kts | 261° |
| 2026-05-07 11:01 | 51.98311 | -0.04560 | 11118 ft | 343 kts | 261° |
| 2026-05-07 11:02 | 51.97973 | -0.08077 | 11530 ft | 352 kts | 262° |